Time;durP1;ratioP1;P1;durP2;ratioP2;P2;SDS_P1;SDS_P2;PMS_P1;PMS_P2;Temp;Humidity;BMP_temperature;BMP_pressure;BME280_temperature;BME280_humidity;BME280_pressure;Samples;Min_cycle;Max_cycle;Signal;HPM_P1;HPM_P2
2022/09/12 00:00:43;;;;;;;1.65;0.40;;;;;;;;;;4997442;28;20038;-77
2022/09/12 00:03:09;;;;;;;2.05;0.45;;;;;;;;;;4994349;28;20068;-77
2022/09/12 00:05:40;;;;;;;3.97;0.50;;;;;;;;;;4994592;28;20073;-77
2022/09/12 00:08:06;;;;;;;3.92;0.40;;;;;;;;;;4980091;28;20085;-77
2022/09/12 00:10:32;;;;;;;2.38;0.50;;;;;;;;;;4984899;28;20442;-77
2022/09/12 00:12:58;;;;;;;2.28;0.50;;;;;;;;;;4996862;28;20034;-77
2022/09/12 00:15:24;;;;;;;3.50;0.50;;;;;;;;;;4995200;28;20463;-76
2022/09/12 00:17:50;;;;;;;3.90;0.70;;;;;;;;;;4998477;28;20030;-77
2022/09/12 00:20:16;;;;;;;2.17;0.50;;;;;;;;;;4995293;28;20099;-77
2022/09/12 00:22:42;;;;;;;3.35;0.45;;;;;;;;;;4993717;28;20054;-77
2022/09/12 00:25:08;;;;;;;3.92;0.50;;;;;;;;;;4996480;28;20070;-76
2022/09/12 00:27:34;;;;;;;1.30;0.32;;;;;;;;;;4982800;28;20029;-77
2022/09/12 00:30:00;;;;;;;2.22;0.40;;;;;;;;;;4998269;28;20387;-77
2022/09/12 00:32:26;;;;;;;3.42;0.50;;;;;;;;;;4995668;28;20037;-77
2022/09/12 00:34:52;;;;;;;2.85;0.30;;;;;;;;;;4999479;28;20069;-72
2022/09/12 00:37:18;;;;;;;1.90;0.45;;;;;;;;;;4994928;28;20037;-72
2022/09/12 00:39:44;;;;;;;2.10;0.40;;;;;;;;;;4998595;28;20463;-72
2022/09/12 00:42:11;;;;;;;3.72;0.73;;;;;;;;;;4997934;28;20026;-72
2022/09/12 00:44:37;;;;;;;4.85;0.60;;;;;;;;;;4997911;28;20472;-77
2022/09/12 00:47:17;;;;;;;3.00;0.60;;;;;;;;;;4994606;28;20057;-77
2022/09/12 00:49:48;;;;;;;4.22;0.60;;;;;;;;;;4996516;28;20541;-76
2022/09/12 00:52:16;;;;;;;3.38;0.60;;;;;;;;;;4994847;28;20018;-76
2022/09/12 00:54:49;;;;;;;5.05;0.60;;;;;;;;;;4993153;28;20042;-76
2022/09/12 00:57:16;;;;;;;3.72;0.52;;;;;;;;;;4993498;28;20022;-77
2022/09/12 01:00:04;;;;;;;3.92;0.80;;;;;;;;;;4995494;28;20036;-77
2022/09/12 01:02:30;;;;;;;3.58;0.60;;;;;;;;;;4991620;28;20044;-77
2022/09/12 01:04:56;;;;;;;3.33;0.60;;;;;;;;;;4993257;28;20044;-76
2022/09/12 01:07:22;;;;;;;7.28;0.70;;;;;;;;;;4994715;28;20034;-77
2022/09/12 01:09:48;;;;;;;1.95;0.50;;;;;;;;;;4992825;28;20045;-76
2022/09/12 01:12:15;;;;;;;2.58;0.50;;;;;;;;;;4997719;28;20092;-77
2022/09/12 01:14:41;;;;;;;2.40;0.45;;;;;;;;;;4983087;28;20030;-77
2022/09/12 01:17:07;;;;;;;4.00;0.40;;;;;;;;;;4999243;28;20074;-77
2022/09/12 01:19:45;;;;;;;3.58;0.55;;;;;;;;;;4994129;28;20029;-77
2022/09/12 01:22:31;;;;;;;2.33;0.32;;;;;;;;;;4984868;28;20041;-77
2022/09/12 01:25:00;;;;;;;1.90;0.40;;;;;;;;;;5000354;28;20037;-77
2022/09/12 01:27:46;;;;;;;3.42;0.50;;;;;;;;;;4995691;28;20042;-77
2022/09/12 01:30:18;;;;;;;3.05;0.70;;;;;;;;;;4993102;28;20380;-76
2022/09/12 01:33:02;;;;;;;5.55;0.50;;;;;;;;;;5000868;28;20124;-76
2022/09/12 01:35:41;;;;;;;2.03;0.38;;;;;;;;;;4995184;28;20126;-76
2022/09/12 01:38:24;;;;;;;3.67;0.60;;;;;;;;;;4990704;28;20680;-76
2022/09/12 01:41:20;;;;;;;5.95;0.52;;;;;;;;;;4995755;28;20114;-77
2022/09/12 01:43:47;;;;;;;2.78;0.52;;;;;;;;;;4993020;28;20423;-76
2022/09/12 01:46:17;;;;;;;3.38;0.50;;;;;;;;;;4993241;28;20042;-77
2022/09/12 01:48:56;;;;;;;2.58;0.50;;;;;;;;;;4992080;28;20522;-77
2022/09/12 01:51:28;;;;;;;3.20;0.60;;;;;;;;;;5003147;28;20041;-77
2022/09/12 01:53:58;;;;;;;0.85;0.38;;;;;;;;;;4998167;28;20089;-76
2022/09/12 01:56:26;;;;;;;1.45;0.28;;;;;;;;;;5001942;28;20556;-77
2022/09/12 01:58:55;;;;;;;3.35;0.60;;;;;;;;;;4996356;28;20045;-77
2022/09/12 02:01:28;;;;;;;7.63;0.55;;;;;;;;;;5001208;28;20494;-76
2022/09/12 02:04:00;;;;;;;2.72;0.60;;;;;;;;;;4997506;28;20411;-77
2022/09/12 02:06:28;;;;;;;2.30;0.50;;;;;;;;;;5003714;28;20030;-77
2022/09/12 02:08:57;;;;;;;6.90;0.50;;;;;;;;;;4999909;28;20041;-77
2022/09/12 02:11:23;;;;;;;1.77;0.40;;;;;;;;;;4997130;28;20484;-76
2022/09/12 02:13:55;;;;;;;5.28;0.50;;;;;;;;;;4994424;28;20084;-77
2022/09/12 02:16:24;;;;;;;1.95;0.50;;;;;;;;;;4998095;28;20045;-77
2022/09/12 02:18:52;;;;;;;1.95;0.50;;;;;;;;;;4997445;28;20058;-76
2022/09/12 02:21:19;;;;;;;1.98;0.40;;;;;;;;;;4996894;28;20141;-77
2022/09/12 02:23:48;;;;;;;2.85;0.50;;;;;;;;;;4996699;28;20550;-76
2022/09/12 02:26:25;;;;;;;4.72;0.60;;;;;;;;;;4997697;28;20073;-77
2022/09/12 02:28:51;;;;;;;1.75;0.40;;;;;;;;;;4996631;28;20030;-77
2022/09/12 02:31:23;;;;;;;3.33;0.40;;;;;;;;;;4998257;28;20054;-76
2022/09/12 02:34:15;;;;;;;2.35;0.52;;;;;;;;;;5003594;28;20112;-76
2022/09/12 02:36:55;;;;;;;7.15;0.40;;;;;;;;;;4957224;28;20053;-77
2022/09/12 02:39:21;;;;;;;2.50;0.40;;;;;;;;;;4985953;28;20038;-76
2022/09/12 02:41:49;;;;;;;1.65;0.38;;;;;;;;;;4998330;28;20038;-76
2022/09/12 02:44:16;;;;;;;2.55;1.02;;;;;;;;;;4997662;28;20105;-76
2022/09/12 02:46:47;;;;;;;6.18;0.82;;;;;;;;;;4996374;28;20053;-76
2022/09/12 02:49:14;;;;;;;2.85;0.55;;;;;;;;;;4996388;28;20141;-77
2022/09/12 02:51:40;;;;;;;4.30;0.50;;;;;;;;;;5002085;28;20042;-77
2022/09/12 02:54:06;;;;;;;1.73;0.60;;;;;;;;;;5000955;28;20352;-77
2022/09/12 02:56:32;;;;;;;4.75;0.55;;;;;;;;;;5003055;28;20070;-77
2022/09/12 02:59:04;;;;;;;4.57;1.00;;;;;;;;;;5000350;28;20038;-77
2022/09/12 03:01:30;;;;;;;2.53;0.60;;;;;;;;;;4994343;28;20033;-77
2022/09/12 03:04:19;;;;;;;2.00;0.40;;;;;;;;;;5000141;28;20030;-77
2022/09/12 03:07:03;;;;;;;3.22;0.70;;;;;;;;;;5000933;28;20100;-76
2022/09/12 03:09:35;;;;;;;8.23;1.30;;;;;;;;;;4997540;28;20049;-76
2022/09/12 03:12:26;;;;;;;5.40;1.27;;;;;;;;;;4995316;28;20518;-77
2022/09/12 03:14:53;;;;;;;2.63;0.80;;;;;;;;;;4988604;28;20483;-77
2022/09/12 03:17:35;;;;;;;2.42;0.60;;;;;;;;;;4999617;28;20690;-77
2022/09/12 03:20:13;;;;;;;3.28;0.75;;;;;;;;;;5002130;28;20041;-76
2022/09/12 03:22:45;;;;;;;4.65;0.50;;;;;;;;;;4993722;28;20037;-76
2022/09/12 03:25:17;;;;;;;3.80;0.60;;;;;;;;;;4993440;28;20387;-77
2022/09/12 03:27:45;;;;;;;3.80;0.60;;;;;;;;;;4998423;28;20045;-76
2022/09/12 03:30:11;;;;;;;3.15;0.60;;;;;;;;;;4998768;28;20208;-77
2022/09/12 03:32:40;;;;;;;3.40;0.52;;;;;;;;;;5000719;28;20056;-77
2022/09/12 03:35:06;;;;;;;2.28;0.50;;;;;;;;;;4997556;28;20022;-77
2022/09/12 03:37:32;;;;;;;1.92;0.40;;;;;;;;;;4998535;28;20388;-77
2022/09/12 03:39:59;;;;;;;1.25;0.50;;;;;;;;;;4995488;28;20040;-76
2022/09/12 03:42:25;;;;;;;4.03;0.40;;;;;;;;;;5001491;28;20045;-77
2022/09/12 03:44:54;;;;;;;3.13;0.45;;;;;;;;;;4980335;28;20037;-77
2022/09/12 03:47:20;;;;;;;3.58;0.60;;;;;;;;;;4993438;28;20377;-76
2022/09/12 03:49:46;;;;;;;3.78;0.70;;;;;;;;;;4994821;28;20037;-77
2022/09/12 03:52:12;;;;;;;2.28;0.50;;;;;;;;;;4999701;28;20027;-76
2022/09/12 03:54:38;;;;;;;1.85;0.50;;;;;;;;;;4995127;28;20456;-76
2022/09/12 03:57:05;;;;;;;3.85;0.65;;;;;;;;;;4996932;28;20515;-76
2022/09/12 03:59:31;;;;;;;3.75;0.68;;;;;;;;;;4996154;28;20026;-76
2022/09/12 04:01:57;;;;;;;2.28;0.60;;;;;;;;;;5001404;28;20115;-76
2022/09/12 04:04:23;;;;;;;4.18;0.65;;;;;;;;;;4993290;28;20038;-76
2022/09/12 04:06:49;;;;;;;1.50;0.50;;;;;;;;;;4999407;28;20503;-77
2022/09/12 04:09:15;;;;;;;9.13;0.68;;;;;;;;;;4998806;28;20081;-77
2022/09/12 04:11:41;;;;;;;2.38;0.60;;;;;;;;;;4992287;28;20038;-76
2022/09/12 04:14:07;;;;;;;5.30;0.60;;;;;;;;;;5000341;28;20060;-77
2022/09/12 04:16:33;;;;;;;7.82;1.30;;;;;;;;;;4999561;28;20052;-77
2022/09/12 04:18:59;;;;;;;3.78;1.23;;;;;;;;;;4991632;28;20034;-77
2022/09/12 04:21:25;;;;;;;4.30;1.08;;;;;;;;;;4983760;28;20112;-77
2022/09/12 04:23:51;;;;;;;3.13;0.80;;;;;;;;;;4998357;28;20033;-77
2022/09/12 04:26:18;;;;;;;4.93;0.55;;;;;;;;;;4995390;28;20044;-77
2022/09/12 04:28:45;;;;;;;6.60;0.63;;;;;;;;;;4996529;28;20097;-77
2022/09/12 04:31:14;;;;;;;3.92;0.80;;;;;;;;;;4995000;28;20487;-77
2022/09/12 04:33:40;;;;;;;3.80;0.60;;;;;;;;;;4995949;28;20030;-76
2022/09/12 04:36:08;;;;;;;6.60;0.60;;;;;;;;;;4995685;28;20083;-77
2022/09/12 04:38:35;;;;;;;7.88;0.60;;;;;;;;;;4995888;28;20438;-77
2022/09/12 04:41:01;;;;;;;7.18;0.70;;;;;;;;;;4997136;28;20118;-77
2022/09/12 04:43:27;;;;;;;3.40;0.50;;;;;;;;;;4996178;28;20400;-76
2022/09/12 04:45:53;;;;;;;4.18;0.80;;;;;;;;;;4993971;28;20061;-76
2022/09/12 04:48:19;;;;;;;2.83;0.50;;;;;;;;;;4999793;28;20105;-76
2022/09/12 04:50:45;;;;;;;5.15;0.70;;;;;;;;;;4980170;28;20049;-76
2022/09/12 04:53:11;;;;;;;5.13;0.70;;;;;;;;;;4997703;28;20018;-77
2022/09/12 04:55:37;;;;;;;2.53;0.65;;;;;;;;;;4982816;28;20117;-77
2022/09/12 04:58:03;;;;;;;6.07;1.20;;;;;;;;;;5000410;28;20675;-76
2022/09/12 05:00:29;;;;;;;9.32;1.17;;;;;;;;;;5001565;28;20080;-77
2022/09/12 05:02:55;;;;;;;4.25;0.70;;;;;;;;;;5001649;28;20112;-77
2022/09/12 05:05:21;;;;;;;5.97;0.80;;;;;;;;;;4997073;28;20042;-77
2022/09/12 05:07:48;;;;;;;5.65;1.00;;;;;;;;;;5001071;28;20034;-77
2022/09/12 05:10:14;;;;;;;6.43;0.80;;;;;;;;;;5001580;28;20443;-76
2022/09/12 05:12:40;;;;;;;5.32;0.85;;;;;;;;;;4997584;28;20064;-76
2022/09/12 05:15:06;;;;;;;4.57;0.85;;;;;;;;;;5003237;28;20029;-76
2022/09/12 05:17:32;;;;;;;5.82;0.80;;;;;;;;;;4998115;28;20358;-76
2022/09/12 05:19:59;;;;;;;4.68;1.30;;;;;;;;;;5005365;28;20046;-76
2022/09/12 05:22:25;;;;;;;7.32;1.15;;;;;;;;;;5001441;28;20057;-76
2022/09/12 05:24:51;;;;;;;7.63;0.90;;;;;;;;;;5003759;28;20153;-76
2022/09/12 05:27:17;;;;;;;8.15;1.23;;;;;;;;;;4998965;28;20040;-77
2022/09/12 05:29:43;;;;;;;5.35;2.40;;;;;;;;;;4997361;28;22302;-76
2022/09/12 05:32:11;;;;;;;11.85;2.15;;;;;;;;;;4995817;28;20022;-77
2022/09/12 05:34:37;;;;;;;6.70;0.88;;;;;;;;;;4982937;28;20025;-76
2022/09/12 05:37:03;;;;;;;7.55;1.15;;;;;;;;;;4996160;28;20031;-76
2022/09/12 05:39:29;;;;;;;6.93;1.10;;;;;;;;;;5002333;28;20034;-76
2022/09/12 05:41:55;;;;;;;7.50;0.90;;;;;;;;;;4984569;28;20364;-76
2022/09/12 05:44:21;;;;;;;7.60;0.85;;;;;;;;;;5001919;28;20044;-76
2022/09/12 05:46:50;;;;;;;7.45;1.10;;;;;;;;;;4998613;28;20062;-76
2022/09/12 05:49:16;;;;;;;3.20;0.82;;;;;;;;;;5004578;28;20066;-76
2022/09/12 05:51:43;;;;;;;6.13;0.98;;;;;;;;;;5001284;28;20060;-76
2022/09/12 05:54:10;;;;;;;4.95;1.20;;;;;;;;;;4995090;28;20060;-76
2022/09/12 05:56:38;;;;;;;6.22;1.00;;;;;;;;;;4995913;28;20535;-76
2022/09/12 05:59:05;;;;;;;16.15;3.00;;;;;;;;;;5004006;28;20120;-76
2022/09/12 06:01:32;;;;;;;19.02;2.95;;;;;;;;;;4986043;28;20554;-77
2022/09/12 06:03:59;;;;;;;17.25;2.30;;;;;;;;;;5002344;28;20034;-72
2022/09/12 06:06:26;;;;;;;8.65;2.00;;;;;;;;;;4991172;28;20348;-76
2022/09/12 06:08:54;;;;;;;12.50;2.05;;;;;;;;;;4995345;28;20035;-76
2022/09/12 06:11:21;;;;;;;9.60;1.55;;;;;;;;;;4995979;28;20116;-76
2022/09/12 06:13:49;;;;;;;9.43;1.85;;;;;;;;;;4993377;28;20561;-77
2022/09/12 06:16:16;;;;;;;9.38;1.80;;;;;;;;;;5003370;28;20033;-77
2022/09/12 06:18:46;;;;;;;9.07;1.92;;;;;;;;;;4996025;28;20022;-76
2022/09/12 06:21:13;;;;;;;11.45;2.10;;;;;;;;;;4998669;28;20075;-77
2022/09/12 06:23:39;;;;;;;9.43;2.25;;;;;;;;;;4998815;28;20038;-77
2022/09/12 06:26:06;;;;;;;11.93;2.70;;;;;;;;;;4998788;28;20084;-77
2022/09/12 06:28:34;;;;;;;10.35;2.67;;;;;;;;;;5000295;28;20049;-76
2022/09/12 06:31:04;;;;;;;11.75;2.50;;;;;;;;;;4992685;28;20091;-77
2022/09/12 06:33:32;;;;;;;8.77;1.73;;;;;;;;;;4995449;28;20612;-76
2022/09/12 06:36:05;;;;;;;5.28;1.50;;;;;;;;;;4994354;28;20796;-76
2022/09/12 06:38:31;;;;;;;9.00;1.60;;;;;;;;;;4997043;28;20426;-76
2022/09/12 06:40:59;;;;;;;9.68;1.60;;;;;;;;;;4997567;28;20090;-76
2022/09/12 06:43:25;;;;;;;9.38;1.92;;;;;;;;;;4999984;28;20033;-76
2022/09/12 06:45:51;;;;;;;11.60;2.00;;;;;;;;;;5004268;28;20077;-76
2022/09/12 06:48:17;;;;;;;9.07;1.60;;;;;;;;;;4998962;28;20101;-76
2022/09/12 06:50:43;;;;;;;12.32;1.90;;;;;;;;;;5002947;28;20742;-76
2022/09/12 06:53:09;;;;;;;6.35;1.50;;;;;;;;;;4999025;28;20063;-76
2022/09/12 06:55:35;;;;;;;6.20;1.33;;;;;;;;;;5004918;28;20034;-76
2022/09/12 06:58:01;;;;;;;5.97;1.08;;;;;;;;;;4998831;28;20040;-76
2022/09/12 07:00:27;;;;;;;8.45;1.35;;;;;;;;;;5001562;28;20038;-77
2022/09/12 07:02:55;;;;;;;11.77;1.50;;;;;;;;;;4985115;28;20061;-77
2022/09/12 07:05:21;;;;;;;7.75;1.63;;;;;;;;;;5002991;28;20034;-73
2022/09/12 07:07:47;;;;;;;12.73;1.67;;;;;;;;;;4984317;28;20036;-77
2022/09/12 07:10:13;;;;;;;9.02;1.70;;;;;;;;;;5003806;28;20128;-76
2022/09/12 07:12:39;;;;;;;7.32;1.60;;;;;;;;;;5003976;28;20172;-76
2022/09/12 07:15:05;;;;;;;7.38;1.48;;;;;;;;;;4997956;28;20042;-77
2022/09/12 07:17:31;;;;;;;6.38;1.17;;;;;;;;;;5004316;28;20488;-77
2022/09/12 07:19:57;;;;;;;8.77;1.77;;;;;;;;;;4993132;28;20434;-72
2022/09/12 07:22:24;;;;;;;11.45;1.42;;;;;;;;;;5002786;28;20033;-76
2022/09/12 07:24:50;;;;;;;6.15;1.58;;;;;;;;;;4998198;28;20865;-73
2022/09/12 07:27:16;;;;;;;7.60;1.40;;;;;;;;;;5001992;28;20032;-73
2022/09/12 07:29:43;;;;;;;6.60;1.08;;;;;;;;;;5003864;28;20445;-76
2022/09/12 07:32:09;;;;;;;5.10;0.60;;;;;;;;;;5004243;28;20061;-77
2022/09/12 07:34:35;;;;;;;4.68;0.90;;;;;;;;;;4997757;28;20507;-77
2022/09/12 07:37:01;;;;;;;6.28;1.40;;;;;;;;;;4999086;28;20093;-76
2022/09/12 07:39:27;;;;;;;7.32;1.55;;;;;;;;;;5001872;28;20036;-76
2022/09/12 07:41:53;;;;;;;6.10;1.80;;;;;;;;;;4998511;28;20033;-77
2022/09/12 07:44:20;;;;;;;5.97;0.70;;;;;;;;;;4998375;28;20026;-77
2022/09/12 07:46:46;;;;;;;2.28;0.50;;;;;;;;;;4990429;28;20050;-77
2022/09/12 07:49:12;;;;;;;4.70;0.82;;;;;;;;;;4981419;28;20030;-76
2022/09/12 07:51:39;;;;;;;5.43;0.90;;;;;;;;;;4978347;28;20499;-76
2022/09/12 07:54:08;;;;;;;7.15;0.95;;;;;;;;;;4982469;28;20037;-77
2022/09/12 07:56:34;;;;;;;4.47;0.80;;;;;;;;;;4981299;28;20038;-76
2022/09/12 07:59:00;;;;;;;4.43;0.75;;;;;;;;;;4981415;28;20388;-77
2022/09/12 08:01:26;;;;;;;8.02;0.70;;;;;;;;;;4977009;28;20048;-76
2022/09/12 08:03:53;;;;;;;4.25;0.80;;;;;;;;;;4982915;28;20033;-77
2022/09/12 08:06:22;;;;;;;4.35;0.88;;;;;;;;;;4975071;28;20046;-77
2022/09/12 08:08:49;;;;;;;9.32;1.00;;;;;;;;;;4982717;28;20791;-77
2022/09/12 08:11:16;;;;;;;5.25;1.02;;;;;;;;;;4976441;28;20034;-77
2022/09/12 08:13:43;;;;;;;3.78;0.60;;;;;;;;;;4975953;28;20545;-77
2022/09/12 08:16:17;;;;;;;8.25;0.70;;;;;;;;;;4974949;28;20039;-77
2022/09/12 08:18:43;;;;;;;5.60;1.13;;;;;;;;;;4982223;28;20034;-76
2022/09/12 08:21:11;;;;;;;5.03;0.35;;;;;;;;;;4972356;28;20092;-76
2022/09/12 08:23:37;;;;;;;2.67;0.40;;;;;;;;;;4981184;28;20120;-77
2022/09/12 08:26:04;;;;;;;3.72;0.65;;;;;;;;;;4986952;28;20046;-76
2022/09/12 08:28:31;;;;;;;5.18;0.60;;;;;;;;;;4988172;28;20621;-77
2022/09/12 08:31:07;;;;;;;3.35;0.40;;;;;;;;;;4987768;28;20073;-77
2022/09/12 08:33:33;;;;;;;6.97;0.80;;;;;;;;;;4989188;28;20749;-77
2022/09/12 08:36:06;;;;;;;6.43;0.80;;;;;;;;;;4985946;28;20038;-77
2022/09/12 08:38:33;;;;;;;2.08;0.55;;;;;;;;;;4986622;28;20574;-77
2022/09/12 08:41:06;;;;;;;6.82;0.77;;;;;;;;;;4984880;28;20085;-77
2022/09/12 08:43:49;;;;;;;4.82;0.50;;;;;;;;;;4981217;28;20061;-77
2022/09/12 08:46:42;;;;;;;3.00;0.38;;;;;;;;;;4979055;28;20135;-77
2022/09/12 08:49:07;;;;;;;;;;;;;;;;;;4956973;28;20042;-77
2022/09/12 08:51:34;;;;;;;3.80;0.52;;;;;;;;;;4982702;28;19933;-77
2022/09/12 08:54:00;;;;;;;2.22;0.40;;;;;;;;;;4987804;28;20061;-77
2022/09/12 08:56:28;;;;;;;2.08;0.20;;;;;;;;;;4988897;28;20045;-77
2022/09/12 08:58:54;;;;;;;0.88;0.30;;;;;;;;;;4986476;28;20080;-77
2022/09/12 09:01:23;;;;;;;4.18;0.22;;;;;;;;;;4988448;28;20115;-77
2022/09/12 09:04:01;;;;;;;1.00;0.30;;;;;;;;;;4985653;28;20468;-77
2022/09/12 09:06:46;;;;;;;2.25;0.30;;;;;;;;;;4984485;28;20026;-77
2022/09/12 09:09:26;;;;;;;2.40;0.30;;;;;;;;;;4989370;28;20034;-77
2022/09/12 09:11:53;;;;;;;1.70;0.30;;;;;;;;;;4978485;28;20034;-77
2022/09/12 09:17:19;;;;;;;2.30;0.30;;;;;;;;;;4982008;28;20056;-77
2022/09/12 09:19:48;;;;;;;3.67;0.50;;;;;;;;;;4976508;28;20044;-77
2022/09/12 09:22:22;;;;;;;3.70;0.30;;;;;;;;;;4980477;28;20034;-77
2022/09/12 09:24:50;;;;;;;7.07;0.40;;;;;;;;;;4971527;28;20109;-77
2022/09/12 09:27:22;;;;;;;1.63;0.32;;;;;;;;;;4980023;28;20416;-77
2022/09/12 09:29:51;;;;;;;1.33;0.40;;;;;;;;;;4975066;28;20037;-77
2022/09/12 09:32:18;;;;;;;5.05;0.40;;;;;;;;;;4980859;28;20027;-77
2022/09/12 09:34:45;;;;;;;3.60;0.32;;;;;;;;;;4982603;28;20026;-77
2022/09/12 09:37:40;;;;;;;3.97;0.47;;;;;;;;;;4977783;28;20056;-77
2022/09/12 09:40:15;;;;;;;3.17;0.47;;;;;;;;;;4965764;28;20047;-77
2022/09/12 09:42:41;;;;;;;0.85;0.25;;;;;;;;;;4978439;28;20034;-77
2022/09/12 09:45:15;;;;;;;1.60;0.40;;;;;;;;;;4980493;28;20072;-77
2022/09/12 09:47:42;;;;;;;8.48;0.45;;;;;;;;;;4996890;28;20076;-77
2022/09/12 09:50:11;;;;;;;4.57;0.45;;;;;;;;;;5000236;28;20069;-78
2022/09/12 09:52:38;;;;;;;2.10;0.47;;;;;;;;;;4998453;28;20113;-78
2022/09/12 09:55:05;;;;;;;1.83;0.40;;;;;;;;;;4998858;28;20030;-77
2022/09/12 09:57:34;;;;;;;2.75;0.50;;;;;;;;;;4996566;28;20621;-77
2022/09/12 10:00:38;;;;;;;4.13;0.30;;;;;;;;;;4998819;28;20491;-77
2022/09/12 10:03:04;;;;;;;5.65;0.70;;;;;;;;;;4901684;29;20040;-77
2022/09/12 10:05:32;;;;;;;4.18;0.65;;;;;;;;;;4908453;29;20051;-77
2022/09/12 10:07:58;;;;;;;20.33;1.45;;;;;;;;;;4952333;28;20142;-77
2022/09/12 10:10:24;;;;;;;3.92;0.95;;;;;;;;;;5006101;28;20048;-78
2022/09/12 10:12:50;;;;;;;2.95;0.52;;;;;;;;;;5009984;28;20041;-77
2022/09/12 10:15:19;;;;;;;2.85;0.60;;;;;;;;;;5010311;28;20026;-78
2022/09/12 10:17:46;;;;;;;1.52;0.43;;;;;;;;;;5009519;28;20061;-77
2022/09/12 10:20:31;;;;;;;1.38;0.40;;;;;;;;;;5008494;28;20412;-77
2022/09/12 10:23:01;;;;;;;2.65;0.40;;;;;;;;;;5001953;28;20045;-77
2022/09/12 10:25:27;;;;;;;7.40;0.50;;;;;;;;;;5010462;28;20036;-77
2022/09/12 10:27:59;;;;;;;4.43;0.70;;;;;;;;;;5012136;28;20112;-77
2022/09/12 10:30:27;;;;;;;2.55;0.50;;;;;;;;;;5010259;28;20033;-78
2022/09/12 10:32:54;;;;;;;2.50;0.43;;;;;;;;;;5007270;28;20029;-77
2022/09/12 10:35:30;;;;;;;3.30;0.68;;;;;;;;;;5011820;28;20076;-77
2022/09/12 10:37:56;;;;;;;4.47;0.60;;;;;;;;;;5007577;28;20041;-77
2022/09/12 10:40:26;;;;;;;3.38;0.45;;;;;;;;;;5010802;28;20030;-77
2022/09/12 10:42:54;;;;;;;4.68;0.85;;;;;;;;;;5007463;28;20033;-77
2022/09/12 10:45:20;;;;;;;8.77;0.70;;;;;;;;;;5006970;28;20030;-77
2022/09/12 10:47:46;;;;;;;4.65;0.52;;;;;;;;;;5008978;28;20774;-77
2022/09/12 10:50:19;;;;;;;5.80;0.70;;;;;;;;;;5011383;28;20033;-77
2022/09/12 10:52:46;;;;;;;9.43;0.70;;;;;;;;;;5011673;28;20029;-77
2022/09/12 10:55:14;;;;;;;2.75;0.40;;;;;;;;;;5011041;28;20390;-77
2022/09/12 10:57:40;;;;;;;2.70;0.50;;;;;;;;;;5011114;28;20096;-78
2022/09/12 11:00:13;;;;;;;4.97;0.60;;;;;;;;;;5003128;28;20141;-77
2022/09/12 11:02:55;;;;;;;4.07;0.75;;;;;;;;;;5010749;28;20101;-75
2022/09/12 11:05:50;;;;;;;3.30;0.57;;;;;;;;;;5007094;28;20030;-77
2022/09/12 11:08:29;;;;;;;2.58;0.55;;;;;;;;;;4986170;28;20148;-78
2022/09/12 11:10:59;;;;;;;3.33;0.68;;;;;;;;;;5005723;28;20033;-78
2022/09/12 11:13:44;;;;;;;3.92;0.40;;;;;;;;;;5008289;28;20037;-78
2022/09/12 11:16:26;;;;;;;2.85;0.43;;;;;;;;;;5006338;28;20033;-78
2022/09/12 11:18:52;;;;;;;3.13;0.50;;;;;;;;;;5010682;28;20602;-78
2022/09/12 11:21:19;;;;;;;1.75;0.40;;;;;;;;;;5008642;28;20034;-78
2022/09/12 11:24:20;;;;;;;3.75;0.50;;;;;;;;;;5009363;28;20418;-77
2022/09/12 11:26:46;;;;;;;8.23;0.53;;;;;;;;;;4924915;29;20051;-77
2022/09/12 11:29:20;;;;;;;2.30;0.43;;;;;;;;;;4988662;28;20129;-77
2022/09/12 11:31:59;;;;;;;5.00;0.60;;;;;;;;;;5007838;28;20502;-77
2022/09/12 11:34:41;;;;;;;2.60;0.50;;;;;;;;;;5009204;28;20030;-77
2022/09/12 11:37:26;;;;;;;5.50;0.65;;;;;;;;;;4999527;28;20054;-77
2022/09/12 11:39:54;;;;;;;3.03;0.60;;;;;;;;;;5005783;28;20045;-77
2022/09/12 11:42:23;;;;;;;3.70;0.63;;;;;;;;;;5009275;28;20036;-74
2022/09/12 11:44:53;;;;;;;3.08;0.60;;;;;;;;;;5011023;28;20042;-74
2022/09/12 11:47:19;;;;;;;2.55;0.50;;;;;;;;;;5011260;28;20419;-76
2022/09/12 11:49:46;;;;;;;3.63;0.50;;;;;;;;;;5011619;28;20085;-74
2022/09/12 11:52:15;;;;;;;8.70;0.70;;;;;;;;;;5001176;28;20030;-74
2022/09/12 11:55:00;;;;;;;6.78;0.60;;;;;;;;;;5005787;28;20061;-74
2022/09/12 11:57:33;;;;;;;3.78;0.50;;;;;;;;;;5010675;28;20072;-74
2022/09/12 12:00:05;;;;;;;7.38;0.65;;;;;;;;;;5011036;28;20080;-75
2022/09/12 12:02:54;;;;;;;6.72;0.68;;;;;;;;;;5008347;28;20029;-75
2022/09/12 12:05:20;;;;;;;4.75;0.50;;;;;;;;;;5003213;28;20092;-75
2022/09/12 12:07:52;;;;;;;3.13;0.50;;;;;;;;;;5010891;28;20029;-74
2022/09/12 12:10:27;;;;;;;2.92;0.70;;;;;;;;;;5008362;28;20034;-75
2022/09/12 12:12:55;;;;;;;4.43;0.50;;;;;;;;;;5002525;28;20040;-75
2022/09/12 12:15:21;;;;;;;3.08;0.80;;;;;;;;;;5011007;28;20495;-74
2022/09/12 12:18:05;;;;;;;4.18;0.50;;;;;;;;;;5009553;28;20566;-74
2022/09/12 12:20:32;;;;;;;5.25;0.50;;;;;;;;;;5002588;28;20045;-75
2022/09/12 12:22:59;;;;;;;4.65;0.95;;;;;;;;;;5007347;28;20109;-75
2022/09/12 12:25:37;;;;;;;2.72;0.50;;;;;;;;;;5001111;28;20550;-75
2022/09/12 12:28:05;;;;;;;2.42;0.50;;;;;;;;;;5011160;28;20026;-75
2022/09/12 12:30:32;;;;;;;3.35;0.77;;;;;;;;;;5008862;28;20041;-74
2022/09/12 12:33:11;;;;;;;1.85;0.50;;;;;;;;;;5001201;28;20424;-74
2022/09/12 12:35:38;;;;;;;4.35;0.50;;;;;;;;;;5007583;28;20053;-74
2022/09/12 12:38:24;;;;;;;3.90;0.50;;;;;;;;;;5006358;28;20034;-74
2022/09/12 12:40:50;;;;;;;1.80;0.40;;;;;;;;;;5005055;28;20038;-74
2022/09/12 12:43:30;;;;;;;2.15;0.32;;;;;;;;;;5005462;28;20037;-74
2022/09/12 12:46:04;;;;;;;4.40;0.50;;;;;;;;;;5000928;28;20126;-74
2022/09/12 12:48:33;;;;;;;4.55;0.40;;;;;;;;;;5003070;28;20472;-74
2022/09/12 12:51:14;;;;;;;1.63;0.25;;;;;;;;;;4998477;28;20038;-75
2022/09/12 12:53:40;;;;;;;;;;;;;;;;;;5009918;28;20093;-75
2022/09/12 12:56:24;;;;;;;1.88;0.30;;;;;;;;;;5003703;28;20049;-75
2022/09/12 12:58:56;;;;;;;3.05;0.40;;;;;;;;;;5009080;28;20379;-75
2022/09/12 13:01:23;;;;;;;5.82;0.50;;;;;;;;;;5008531;28;20030;-74
2022/09/12 13:03:54;;;;;;;3.25;0.50;;;;;;;;;;4985739;28;20478;-75
2022/09/12 13:06:26;;;;;;;2.70;0.63;;;;;;;;;;4999773;28;20065;-75
2022/09/12 13:08:58;;;;;;;3.03;0.45;;;;;;;;;;5009798;28;20034;-74
2022/09/12 13:11:51;;;;;;;2.50;0.50;;;;;;;;;;5000849;28;20045;-75
2022/09/12 13:14:33;;;;;;;1.98;0.30;;;;;;;;;;5002668;28;20034;-75
2022/09/12 13:17:03;;;;;;;1.13;0.20;;;;;;;;;;5008389;28;20435;-75
2022/09/12 13:19:31;;;;;;;3.70;0.40;;;;;;;;;;5004593;28;20068;-75
2022/09/12 13:22:01;;;;;;;3.70;0.30;;;;;;;;;;5006796;28;20048;-75
2022/09/12 13:24:27;;;;;;;1.30;0.32;;;;;;;;;;5014780;28;20092;-75
2022/09/12 13:26:54;;;;;;;1.75;0.30;;;;;;;;;;5008897;28;20046;-75
2022/09/12 13:29:21;;;;;;;3.33;0.40;;;;;;;;;;4996706;28;20117;-75
2022/09/12 13:31:48;;;;;;;1.38;0.45;;;;;;;;;;4985073;28;20029;-75
2022/09/12 13:34:41;;;;;;;1.58;0.40;;;;;;;;;;5007777;28;20038;-75
2022/09/12 13:37:10;;;;;;;0.90;0.20;;;;;;;;;;5003527;28;20050;-75
2022/09/12 13:39:55;;;;;;;2.20;0.30;;;;;;;;;;5004929;28;20037;-74
2022/09/12 13:42:24;;;;;;;1.20;0.25;;;;;;;;;;5009078;28;20030;-75
2022/09/12 13:44:52;;;;;;;1.95;0.50;;;;;;;;;;5007132;28;20490;-75
2022/09/12 13:47:30;;;;;;;2.92;0.30;;;;;;;;;;4999160;28;20057;-75
2022/09/12 13:49:57;;;;;;;3.20;0.30;;;;;;;;;;5002814;28;20033;-74
2022/09/12 13:52:25;;;;;;;1.90;0.28;;;;;;;;;;5007962;28;20073;-75
2022/09/12 13:54:53;;;;;;;1.70;0.50;;;;;;;;;;5005688;28;20034;-75
2022/09/12 13:57:29;;;;;;;2.65;0.40;;;;;;;;;;4999047;28;20022;-75
2022/09/12 13:59:56;;;;;;;2.20;0.30;;;;;;;;;;5002329;28;20037;-75
2022/09/12 14:02:24;;;;;;;5.68;0.35;;;;;;;;;;4980968;28;20040;-75
2022/09/12 14:05:08;;;;;;;1.20;0.20;;;;;;;;;;5002462;28;20034;-75
2022/09/12 14:07:38;;;;;;;4.30;0.60;;;;;;;;;;5002347;28;20033;-75
2022/09/12 14:10:04;;;;;;;3.42;0.30;;;;;;;;;;5001228;28;20132;-75
2022/09/12 14:12:33;;;;;;;3.38;0.40;;;;;;;;;;4997196;28;20029;-75
2022/09/12 14:14:59;;;;;;;1.95;0.40;;;;;;;;;;5001011;28;20499;-75
2022/09/12 14:17:32;;;;;;;2.00;0.30;;;;;;;;;;5000477;28;20034;-75
2022/09/12 14:20:00;;;;;;;2.78;0.30;;;;;;;;;;4995538;28;20446;-75
2022/09/12 14:22:28;;;;;;;1.65;0.40;;;;;;;;;;4997323;28;20077;-75
2022/09/12 14:24:55;;;;;;;1.15;0.28;;;;;;;;;;5000036;28;20419;-75
2022/09/12 14:27:24;;;;;;;2.10;0.40;;;;;;;;;;4998847;28;20113;-75
2022/09/12 14:30:01;;;;;;;4.13;0.52;;;;;;;;;;4997428;28;20080;-75
2022/09/12 14:32:27;;;;;;;2.33;0.30;;;;;;;;;;4992497;28;20524;-75
2022/09/12 14:35:11;;;;;;;2.53;0.30;;;;;;;;;;4999001;28;20029;-75
2022/09/12 14:37:38;;;;;;;1.85;0.30;;;;;;;;;;4997390;28;20391;-76
2022/09/12 14:40:15;;;;;;;2.28;0.30;;;;;;;;;;5000015;28;20282;-75
2022/09/12 14:42:41;;;;;;;1.60;0.30;;;;;;;;;;4980275;28;20486;-75
2022/09/12 14:45:16;;;;;;;2.45;0.40;;;;;;;;;;4993833;28;20035;-75
2022/09/12 14:47:43;;;;;;;6.10;0.50;;;;;;;;;;4998526;28;20105;-75
2022/09/12 14:50:15;;;;;;;1.45;0.30;;;;;;;;;;5000620;28;20121;-76
2022/09/12 14:52:42;;;;;;;1.25;0.40;;;;;;;;;;4993257;28;20375;-75
2022/09/12 14:55:17;;;;;;;2.35;0.40;;;;;;;;;;5000003;28;20057;-75
2022/09/12 14:57:44;;;;;;;0.82;0.30;;;;;;;;;;4996999;28;20036;-75
2022/09/12 15:00:13;;;;;;;4.10;0.60;;;;;;;;;;5000889;28;20393;-75
2022/09/12 15:02:43;;;;;;;3.60;0.35;;;;;;;;;;5001704;28;20371;-75